sensor_id;sensor_type;location;lat;lon;timestamp;P1;durP1;ratioP1;P2;durP2;ratioP2
11807;SDS011;5961;42.640;23.380;2023-10-09T00:01:39;7.07;;;2.40;;
11807;SDS011;5961;42.640;23.380;2023-10-09T00:04:08;5.90;;;2.43;;
11807;SDS011;5961;42.640;23.380;2023-10-09T00:06:37;8.40;;;2.77;;
11807;SDS011;5961;42.640;23.380;2023-10-09T00:09:04;8.63;;;2.37;;
11807;SDS011;5961;42.640;23.380;2023-10-09T00:11:54;7.53;;;2.67;;
11807;SDS011;5961;42.640;23.380;2023-10-09T00:14:22;8.70;;;2.70;;
11807;SDS011;5961;42.640;23.380;2023-10-09T00:16:50;5.97;;;2.93;;
11807;SDS011;5961;42.640;23.380;2023-10-09T00:19:28;9.43;;;2.50;;
11807;SDS011;5961;42.640;23.380;2023-10-09T00:21:59;5.67;;;2.40;;
11807;SDS011;5961;42.640;23.380;2023-10-09T00:24:34;4.97;;;2.43;;
11807;SDS011;5961;42.640;23.380;2023-10-09T00:27:02;4.33;;;2.47;;
11807;SDS011;5961;42.640;23.380;2023-10-09T00:29:37;7.20;;;2.63;;
11807;SDS011;5961;42.640;23.380;2023-10-09T00:32:09;9.40;;;2.63;;
11807;SDS011;5961;42.640;23.380;2023-10-09T00:34:41;5.80;;;2.80;;
11807;SDS011;5961;42.640;23.380;2023-10-09T00:37:10;6.63;;;2.13;;
11807;SDS011;5961;42.640;23.380;2023-10-09T00:39:41;6.40;;;2.40;;
11807;SDS011;5961;42.640;23.380;2023-10-09T00:42:09;9.10;;;2.50;;
11807;SDS011;5961;42.640;23.380;2023-10-09T00:44:39;4.70;;;2.33;;
11807;SDS011;5961;42.640;23.380;2023-10-09T00:47:08;7.90;;;2.47;;
11807;SDS011;5961;42.640;23.380;2023-10-09T00:49:49;4.67;;;2.30;;
11807;SDS011;5961;42.640;23.380;2023-10-09T00:52:24;4.60;;;2.20;;
11807;SDS011;5961;42.640;23.380;2023-10-09T00:54:57;4.47;;;2.30;;
11807;SDS011;5961;42.640;23.380;2023-10-09T00:57:31;8.00;;;2.50;;
11807;SDS011;5961;42.640;23.380;2023-10-09T01:00:03;4.07;;;1.97;;
11807;SDS011;5961;42.640;23.380;2023-10-09T01:02:38;9.50;;;2.30;;
11807;SDS011;5961;42.640;23.380;2023-10-09T01:05:08;2.70;;;1.70;;
11807;SDS011;5961;42.640;23.380;2023-10-09T01:07:46;3.97;;;2.27;;
11807;SDS011;5961;42.640;23.380;2023-10-09T01:10:23;5.43;;;2.27;;
11807;SDS011;5961;42.640;23.380;2023-10-09T01:12:58;6.00;;;2.33;;
11807;SDS011;5961;42.640;23.380;2023-10-09T01:15:25;4.03;;;2.10;;
11807;SDS011;5961;42.640;23.380;2023-10-09T01:18:08;8.17;;;2.53;;
11807;SDS011;5961;42.640;23.380;2023-10-09T01:20:36;5.50;;;2.20;;
11807;SDS011;5961;42.640;23.380;2023-10-09T01:23:11;5.93;;;2.17;;
11807;SDS011;5961;42.640;23.380;2023-10-09T01:25:38;5.70;;;2.00;;
11807;SDS011;5961;42.640;23.380;2023-10-09T01:28:10;4.23;;;2.20;;
11807;SDS011;5961;42.640;23.380;2023-10-09T01:30:41;5.10;;;2.00;;
11807;SDS011;5961;42.640;23.380;2023-10-09T01:33:08;4.20;;;2.00;;
11807;SDS011;5961;42.640;23.380;2023-10-09T01:35:49;5.13;;;2.10;;
11807;SDS011;5961;42.640;23.380;2023-10-09T01:38:22;4.37;;;2.23;;
11807;SDS011;5961;42.640;23.380;2023-10-09T01:41:07;3.47;;;2.00;;
11807;SDS011;5961;42.640;23.380;2023-10-09T01:43:41;4.20;;;2.10;;
11807;SDS011;5961;42.640;23.380;2023-10-09T01:46:10;4.23;;;1.93;;
11807;SDS011;5961;42.640;23.380;2023-10-09T01:48:40;7.07;;;2.13;;
11807;SDS011;5961;42.640;23.380;2023-10-09T01:51:13;3.80;;;1.90;;
11807;SDS011;5961;42.640;23.380;2023-10-09T01:53:43;6.60;;;2.10;;
11807;SDS011;5961;42.640;23.380;2023-10-09T01:56:12;3.67;;;1.87;;
11807;SDS011;5961;42.640;23.380;2023-10-09T01:58:44;7.60;;;2.00;;
11807;SDS011;5961;42.640;23.380;2023-10-09T02:01:12;6.93;;;2.77;;
11807;SDS011;5961;42.640;23.380;2023-10-09T02:03:40;7.63;;;2.50;;
11807;SDS011;5961;42.640;23.380;2023-10-09T02:06:08;7.73;;;2.47;;
11807;SDS011;5961;42.640;23.380;2023-10-09T02:08:53;3.43;;;2.43;;
11807;SDS011;5961;42.640;23.380;2023-10-09T02:11:21;5.83;;;1.90;;
11807;SDS011;5961;42.640;23.380;2023-10-09T02:14:01;4.77;;;2.20;;
11807;SDS011;5961;42.640;23.380;2023-10-09T02:16:40;2.73;;;2.20;;
11807;SDS011;5961;42.640;23.380;2023-10-09T02:19:08;6.87;;;2.10;;
11807;SDS011;5961;42.640;23.380;2023-10-09T02:21:54;5.17;;;1.90;;
11807;SDS011;5961;42.640;23.380;2023-10-09T02:24:23;4.30;;;2.10;;
11807;SDS011;5961;42.640;23.380;2023-10-09T02:27:09;3.37;;;2.33;;
11807;SDS011;5961;42.640;23.380;2023-10-09T02:29:37;6.03;;;2.27;;
11807;SDS011;5961;42.640;23.380;2023-10-09T02:32:04;3.93;;;2.10;;
11807;SDS011;5961;42.640;23.380;2023-10-09T02:34:43;6.80;;;2.20;;
11807;SDS011;5961;42.640;23.380;2023-10-09T02:37:11;2.87;;;2.37;;
11807;SDS011;5961;42.640;23.380;2023-10-09T02:39:40;3.03;;;1.83;;
11807;SDS011;5961;42.640;23.380;2023-10-09T02:42:12;4.60;;;1.90;;
11807;SDS011;5961;42.640;23.380;2023-10-09T02:44:48;6.90;;;2.03;;
11807;SDS011;5961;42.640;23.380;2023-10-09T02:47:16;5.00;;;2.00;;
11807;SDS011;5961;42.640;23.380;2023-10-09T02:49:46;4.60;;;1.97;;
11807;SDS011;5961;42.640;23.380;2023-10-09T02:52:15;6.50;;;2.00;;
11807;SDS011;5961;42.640;23.380;2023-10-09T02:54:51;4.37;;;2.07;;
11807;SDS011;5961;42.640;23.380;2023-10-09T02:57:25;4.57;;;1.93;;
11807;SDS011;5961;42.640;23.380;2023-10-09T03:00:01;4.50;;;2.13;;
11807;SDS011;5961;42.640;23.380;2023-10-09T03:02:33;6.57;;;2.07;;
11807;SDS011;5961;42.640;23.380;2023-10-09T03:05:01;5.03;;;2.03;;
11807;SDS011;5961;42.640;23.380;2023-10-09T03:07:28;6.50;;;2.23;;
11807;SDS011;5961;42.640;23.380;2023-10-09T03:09:56;4.10;;;1.87;;
11807;SDS011;5961;42.640;23.380;2023-10-09T03:12:23;4.07;;;1.80;;
11807;SDS011;5961;42.640;23.380;2023-10-09T03:14:53;4.50;;;1.70;;
11807;SDS011;5961;42.640;23.380;2023-10-09T03:17:24;4.60;;;1.80;;
11807;SDS011;5961;42.640;23.380;2023-10-09T03:19:50;1.97;;;1.67;;
11807;SDS011;5961;42.640;23.380;2023-10-09T03:22:17;2.03;;;1.60;;
11807;SDS011;5961;42.640;23.380;2023-10-09T03:24:44;2.47;;;1.60;;
11807;SDS011;5961;42.640;23.380;2023-10-09T03:27:12;2.43;;;1.60;;
11807;SDS011;5961;42.640;23.380;2023-10-09T03:29:41;2.80;;;1.60;;
11807;SDS011;5961;42.640;23.380;2023-10-09T03:32:14;4.13;;;1.90;;
11807;SDS011;5961;42.640;23.380;2023-10-09T03:34:41;4.23;;;1.67;;
11807;SDS011;5961;42.640;23.380;2023-10-09T03:37:08;3.40;;;1.40;;
11807;SDS011;5961;42.640;23.380;2023-10-09T03:39:47;2.50;;;1.43;;
11807;SDS011;5961;42.640;23.380;2023-10-09T03:42:18;5.57;;;1.63;;
11807;SDS011;5961;42.640;23.380;2023-10-09T03:44:45;1.53;;;1.43;;
11807;SDS011;5961;42.640;23.380;2023-10-09T03:47:17;2.60;;;1.60;;
11807;SDS011;5961;42.640;23.380;2023-10-09T03:49:47;4.57;;;1.60;;
11807;SDS011;5961;42.640;23.380;2023-10-09T03:52:16;5.37;;;1.50;;
11807;SDS011;5961;42.640;23.380;2023-10-09T03:54:44;3.17;;;1.63;;
11807;SDS011;5961;42.640;23.380;2023-10-09T03:57:11;4.20;;;1.50;;
11807;SDS011;5961;42.640;23.380;2023-10-09T03:59:46;3.03;;;1.50;;
11807;SDS011;5961;42.640;23.380;2023-10-09T04:02:13;1.93;;;1.33;;
11807;SDS011;5961;42.640;23.380;2023-10-09T04:04:40;4.70;;;1.60;;
11807;SDS011;5961;42.640;23.380;2023-10-09T04:07:11;1.57;;;1.47;;
11807;SDS011;5961;42.640;23.380;2023-10-09T04:09:37;2.13;;;1.50;;
11807;SDS011;5961;42.640;23.380;2023-10-09T04:12:09;2.57;;;1.40;;
11807;SDS011;5961;42.640;23.380;2023-10-09T04:14:49;1.90;;;1.43;;
11807;SDS011;5961;42.640;23.380;2023-10-09T04:17:20;1.63;;;1.47;;
11807;SDS011;5961;42.640;23.380;2023-10-09T04:19:59;5.23;;;1.50;;
11807;SDS011;5961;42.640;23.380;2023-10-09T04:23:12;1.97;;;1.60;;
11807;SDS011;5961;42.640;23.380;2023-10-09T04:25:41;4.00;;;1.53;;
11807;SDS011;5961;42.640;23.380;2023-10-09T04:28:10;2.60;;;1.30;;
11807;SDS011;5961;42.640;23.380;2023-10-09T04:30:45;4.10;;;1.43;;
11807;SDS011;5961;42.640;23.380;2023-10-09T04:33:18;4.60;;;1.57;;
11807;SDS011;5961;42.640;23.380;2023-10-09T04:36:01;1.50;;;1.40;;
11807;SDS011;5961;42.640;23.380;2023-10-09T04:38:47;2.70;;;1.50;;
11807;SDS011;5961;42.640;23.380;2023-10-09T04:41:29;4.80;;;1.60;;
11807;SDS011;5961;42.640;23.380;2023-10-09T04:44:17;2.43;;;1.40;;
11807;SDS011;5961;42.640;23.380;2023-10-09T04:46:45;2.53;;;1.60;;
11807;SDS011;5961;42.640;23.380;2023-10-09T04:49:32;1.50;;;1.40;;
11807;SDS011;5961;42.640;23.380;2023-10-09T04:52:14;1.50;;;1.40;;
11807;SDS011;5961;42.640;23.380;2023-10-09T04:54:45;3.50;;;1.50;;
11807;SDS011;5961;42.640;23.380;2023-10-09T04:57:30;2.30;;;1.53;;
11807;SDS011;5961;42.640;23.380;2023-10-09T05:00:04;2.37;;;1.50;;
11807;SDS011;5961;42.640;23.380;2023-10-09T05:02:49;3.67;;;1.70;;
11807;SDS011;5961;42.640;23.380;2023-10-09T05:05:20;2.80;;;1.50;;
11807;SDS011;5961;42.640;23.380;2023-10-09T05:08:14;4.07;;;1.63;;
11807;SDS011;5961;42.640;23.380;2023-10-09T05:10:44;1.53;;;1.43;;
11807;SDS011;5961;42.640;23.380;2023-10-09T05:13:31;2.83;;;1.60;;
11807;SDS011;5961;42.640;23.380;2023-10-09T05:16:08;1.97;;;1.53;;
11807;SDS011;5961;42.640;23.380;2023-10-09T05:18:44;3.37;;;1.67;;
11807;SDS011;5961;42.640;23.380;2023-10-09T05:21:21;1.60;;;1.50;;
11807;SDS011;5961;42.640;23.380;2023-10-09T05:24:09;2.60;;;1.60;;
11807;SDS011;5961;42.640;23.380;2023-10-09T05:26:44;1.77;;;1.50;;
11807;SDS011;5961;42.640;23.380;2023-10-09T05:29:16;2.07;;;1.43;;
11807;SDS011;5961;42.640;23.380;2023-10-09T05:32:10;2.73;;;1.50;;
11807;SDS011;5961;42.640;23.380;2023-10-09T05:34:54;2.83;;;1.57;;
11807;SDS011;5961;42.640;23.380;2023-10-09T05:37:40;2.50;;;1.70;;
11807;SDS011;5961;42.640;23.380;2023-10-09T05:40:11;2.57;;;1.77;;
11807;SDS011;5961;42.640;23.380;2023-10-09T05:42:56;2.97;;;1.50;;
11807;SDS011;5961;42.640;23.380;2023-10-09T05:45:28;1.97;;;1.67;;
11807;SDS011;5961;42.640;23.380;2023-10-09T05:48:12;1.87;;;1.70;;
11807;SDS011;5961;42.640;23.380;2023-10-09T05:51:10;1.80;;;1.57;;
11807;SDS011;5961;42.640;23.380;2023-10-09T05:53:56;1.63;;;1.37;;
11807;SDS011;5961;42.640;23.380;2023-10-09T05:56:49;2.13;;;1.63;;
11807;SDS011;5961;42.640;23.380;2023-10-09T05:59:33;3.03;;;1.67;;
11807;SDS011;5961;42.640;23.380;2023-10-09T06:02:26;2.50;;;1.63;;
11807;SDS011;5961;42.640;23.380;2023-10-09T06:05:10;3.10;;;1.70;;
11807;SDS011;5961;42.640;23.380;2023-10-09T06:08:07;2.23;;;1.50;;
11807;SDS011;5961;42.640;23.380;2023-10-09T06:10:38;1.93;;;1.60;;
11807;SDS011;5961;42.640;23.380;2023-10-09T06:13:08;2.43;;;1.40;;
11807;SDS011;5961;42.640;23.380;2023-10-09T06:15:49;1.47;;;1.37;;
11807;SDS011;5961;42.640;23.380;2023-10-09T06:18:34;1.60;;;1.50;;
11807;SDS011;5961;42.640;23.380;2023-10-09T06:21:00;1.60;;;1.50;;
11807;SDS011;5961;42.640;23.380;2023-10-09T06:23:55;3.73;;;1.60;;
11807;SDS011;5961;42.640;23.380;2023-10-09T06:26:39;3.17;;;1.63;;
11807;SDS011;5961;42.640;23.380;2023-10-09T06:29:16;2.30;;;1.60;;
11807;SDS011;5961;42.640;23.380;2023-10-09T06:31:59;4.10;;;1.60;;
11807;SDS011;5961;42.640;23.380;2023-10-09T06:34:42;1.97;;;1.73;;
11807;SDS011;5961;42.640;23.380;2023-10-09T06:37:11;1.90;;;1.50;;
11807;SDS011;5961;42.640;23.380;2023-10-09T06:40:01;2.27;;;1.73;;
11807;SDS011;5961;42.640;23.380;2023-10-09T06:43:04;3.40;;;1.50;;
11807;SDS011;5961;42.640;23.380;2023-10-09T06:45:35;2.77;;;1.70;;
11807;SDS011;5961;42.640;23.380;2023-10-09T06:48:10;5.50;;;1.53;;
11807;SDS011;5961;42.640;23.380;2023-10-09T06:50:51;1.70;;;1.60;;
11807;SDS011;5961;42.640;23.380;2023-10-09T06:53:29;3.03;;;1.60;;
11807;SDS011;5961;42.640;23.380;2023-10-09T06:56:11;1.87;;;1.73;;
11807;SDS011;5961;42.640;23.380;2023-10-09T06:58:50;1.63;;;1.53;;
11807;SDS011;5961;42.640;23.380;2023-10-09T07:01:20;1.80;;;1.70;;
11807;SDS011;5961;42.640;23.380;2023-10-09T07:03:54;2.03;;;1.70;;
11807;SDS011;5961;42.640;23.380;2023-10-09T07:06:25;1.67;;;1.57;;
11807;SDS011;5961;42.640;23.380;2023-10-09T07:09:06;2.20;;;1.57;;
11807;SDS011;5961;42.640;23.380;2023-10-09T07:11:46;2.00;;;1.80;;
11807;SDS011;5961;42.640;23.380;2023-10-09T07:14:25;2.80;;;1.80;;
11807;SDS011;5961;42.640;23.380;2023-10-09T07:17:09;3.97;;;2.27;;
11807;SDS011;5961;42.640;23.380;2023-10-09T07:19:47;1.80;;;1.70;;
11807;SDS011;5961;42.640;23.380;2023-10-09T07:22:31;2.33;;;1.80;;
11807;SDS011;5961;42.640;23.380;2023-10-09T07:25:05;1.70;;;1.60;;
11807;SDS011;5961;42.640;23.380;2023-10-09T07:27:42;2.33;;;2.00;;
11807;SDS011;5961;42.640;23.380;2023-10-09T07:30:10;2.57;;;2.37;;
11807;SDS011;5961;42.640;23.380;2023-10-09T07:33:01;2.53;;;1.87;;
11807;SDS011;5961;42.640;23.380;2023-10-09T07:35:42;1.60;;;1.50;;
11807;SDS011;5961;42.640;23.380;2023-10-09T07:38:20;1.57;;;1.47;;
11807;SDS011;5961;42.640;23.380;2023-10-09T07:40:49;1.77;;;1.60;;
11807;SDS011;5961;42.640;23.380;2023-10-09T07:43:22;4.57;;;2.20;;
11807;SDS011;5961;42.640;23.380;2023-10-09T07:45:54;2.30;;;2.10;;
11807;SDS011;5961;42.640;23.380;2023-10-09T07:48:35;2.03;;;1.70;;
11807;SDS011;5961;42.640;23.380;2023-10-09T07:51:13;2.73;;;1.63;;
11807;SDS011;5961;42.640;23.380;2023-10-09T07:53:41;1.53;;;1.43;;
11807;SDS011;5961;42.640;23.380;2023-10-09T07:56:09;1.70;;;1.60;;
11807;SDS011;5961;42.640;23.380;2023-10-09T07:58:40;1.70;;;1.60;;
11807;SDS011;5961;42.640;23.380;2023-10-09T08:01:14;3.93;;;1.80;;
11807;SDS011;5961;42.640;23.380;2023-10-09T08:03:48;5.07;;;1.87;;
11807;SDS011;5961;42.640;23.380;2023-10-09T08:06:26;1.93;;;1.60;;
11807;SDS011;5961;42.640;23.380;2023-10-09T08:09:07;2.30;;;1.57;;
11807;SDS011;5961;42.640;23.380;2023-10-09T08:12:04;5.57;;;1.57;;
11807;SDS011;5961;42.640;23.380;2023-10-09T08:14:42;1.70;;;1.60;;
11807;SDS011;5961;42.640;23.380;2023-10-09T08:17:13;1.60;;;1.50;;
11807;SDS011;5961;42.640;23.380;2023-10-09T08:19:41;1.93;;;1.80;;
11807;SDS011;5961;42.640;23.380;2023-10-09T08:22:22;3.10;;;1.70;;
11807;SDS011;5961;42.640;23.380;2023-10-09T08:25:17;2.17;;;1.77;;
11807;SDS011;5961;42.640;23.380;2023-10-09T08:27:55;1.83;;;1.73;;
11807;SDS011;5961;42.640;23.380;2023-10-09T08:30:24;1.90;;;1.70;;
11807;SDS011;5961;42.640;23.380;2023-10-09T08:33:06;1.67;;;1.57;;
11807;SDS011;5961;42.640;23.380;2023-10-09T08:35:46;4.80;;;1.70;;
11807;SDS011;5961;42.640;23.380;2023-10-09T08:38:14;2.77;;;1.60;;
11807;SDS011;5961;42.640;23.380;2023-10-09T08:40:48;2.47;;;1.63;;
11807;SDS011;5961;42.640;23.380;2023-10-09T08:43:16;1.87;;;1.50;;
11807;SDS011;5961;42.640;23.380;2023-10-09T08:45:46;1.97;;;1.57;;
11807;SDS011;5961;42.640;23.380;2023-10-09T08:48:14;1.73;;;1.60;;
11807;SDS011;5961;42.640;23.380;2023-10-09T08:50:43;2.90;;;1.53;;
11807;SDS011;5961;42.640;23.380;2023-10-09T08:53:11;3.47;;;1.93;;
11807;SDS011;5961;42.640;23.380;2023-10-09T08:55:39;2.40;;;1.90;;
11807;SDS011;5961;42.640;23.380;2023-10-09T08:58:06;2.37;;;1.40;;
11807;SDS011;5961;42.640;23.380;2023-10-09T09:00:47;1.73;;;1.63;;
11807;SDS011;5961;42.640;23.380;2023-10-09T09:03:14;3.30;;;1.77;;
11807;SDS011;5961;42.640;23.380;2023-10-09T09:05:43;1.60;;;1.50;;
11807;SDS011;5961;42.640;23.380;2023-10-09T09:08:21;2.80;;;1.70;;
11807;SDS011;5961;42.640;23.380;2023-10-09T09:10:51;2.53;;;1.70;;
11807;SDS011;5961;42.640;23.380;2023-10-09T09:13:23;2.93;;;1.60;;
11807;SDS011;5961;42.640;23.380;2023-10-09T09:15:58;1.80;;;1.43;;
11807;SDS011;5961;42.640;23.380;2023-10-09T09:18:25;3.33;;;1.43;;
11807;SDS011;5961;42.640;23.380;2023-10-09T09:20:57;2.20;;;1.50;;
11807;SDS011;5961;42.640;23.380;2023-10-09T09:23:24;2.83;;;1.53;;
11807;SDS011;5961;42.640;23.380;2023-10-09T09:25:52;2.83;;;1.70;;
11807;SDS011;5961;42.640;23.380;2023-10-09T09:28:24;1.70;;;1.60;;
11807;SDS011;5961;42.640;23.380;2023-10-09T09:31:04;1.73;;;1.63;;
11807;SDS011;5961;42.640;23.380;2023-10-09T09:33:38;2.80;;;1.70;;
11807;SDS011;5961;42.640;23.380;2023-10-09T09:36:05;2.17;;;1.87;;
11807;SDS011;5961;42.640;23.380;2023-10-09T09:38:33;2.50;;;1.63;;
11807;SDS011;5961;42.640;23.380;2023-10-09T09:41:13;5.17;;;1.67;;
11807;SDS011;5961;42.640;23.380;2023-10-09T09:43:50;1.60;;;1.47;;
11807;SDS011;5961;42.640;23.380;2023-10-09T09:46:22;2.87;;;1.60;;
11807;SDS011;5961;42.640;23.380;2023-10-09T09:48:57;2.17;;;1.70;;
11807;SDS011;5961;42.640;23.380;2023-10-09T09:51:29;2.10;;;1.50;;
11807;SDS011;5961;42.640;23.380;2023-10-09T09:53:56;2.83;;;1.70;;
11807;SDS011;5961;42.640;23.380;2023-10-09T09:56:24;2.90;;;1.70;;
11807;SDS011;5961;42.640;23.380;2023-10-09T09:58:52;2.57;;;1.90;;
11807;SDS011;5961;42.640;23.380;2023-10-09T10:01:24;2.23;;;1.80;;
11807;SDS011;5961;42.640;23.380;2023-10-09T10:03:58;3.53;;;1.60;;
11807;SDS011;5961;42.640;23.380;2023-10-09T10:06:30;4.63;;;1.87;;
11807;SDS011;5961;42.640;23.380;2023-10-09T10:08:59;1.90;;;1.50;;
11807;SDS011;5961;42.640;23.380;2023-10-09T10:11:44;2.40;;;1.80;;
11807;SDS011;5961;42.640;23.380;2023-10-09T10:14:11;2.70;;;1.60;;
11807;SDS011;5961;42.640;23.380;2023-10-09T10:17:04;2.57;;;1.67;;
11807;SDS011;5961;42.640;23.380;2023-10-09T10:20:00;5.53;;;1.80;;
11807;SDS011;5961;42.640;23.380;2023-10-09T10:22:50;1.53;;;1.43;;
11807;SDS011;5961;42.640;23.380;2023-10-09T10:25:31;2.87;;;1.73;;
11807;SDS011;5961;42.640;23.380;2023-10-09T10:30:53;2.20;;;1.97;;
11807;SDS011;5961;42.640;23.380;2023-10-09T10:33:22;2.43;;;1.70;;
11807;SDS011;5961;42.640;23.380;2023-10-09T10:35:51;2.00;;;1.50;;
11807;SDS011;5961;42.640;23.380;2023-10-09T10:38:27;4.07;;;1.70;;
11807;SDS011;5961;42.640;23.380;2023-10-09T10:43:49;2.20;;;1.60;;
11807;SDS011;5961;42.640;23.380;2023-10-09T10:46:48;2.53;;;1.80;;
11807;SDS011;5961;42.640;23.380;2023-10-09T10:49:19;3.20;;;2.13;;
11807;SDS011;5961;42.640;23.380;2023-10-09T10:51:48;3.03;;;2.30;;
11807;SDS011;5961;42.640;23.380;2023-10-09T10:54:26;3.40;;;2.00;;
11807;SDS011;5961;42.640;23.380;2023-10-09T10:57:14;1.93;;;1.80;;
11807;SDS011;5961;42.640;23.380;2023-10-09T10:59:55;3.73;;;2.80;;
11807;SDS011;5961;42.640;23.380;2023-10-09T11:02:57;2.63;;;1.97;;
11807;SDS011;5961;42.640;23.380;2023-10-09T11:05:40;2.37;;;2.00;;
11807;SDS011;5961;42.640;23.380;2023-10-09T11:08:15;3.47;;;2.50;;
11807;SDS011;5961;42.640;23.380;2023-10-09T11:10:47;2.13;;;1.93;;
11807;SDS011;5961;42.640;23.380;2023-10-09T11:13:22;3.20;;;2.40;;
11807;SDS011;5961;42.640;23.380;2023-10-09T11:15:55;3.37;;;2.10;;
11807;SDS011;5961;42.640;23.380;2023-10-09T11:18:40;4.53;;;2.40;;
11807;SDS011;5961;42.640;23.380;2023-10-09T11:21:14;3.33;;;2.03;;
11807;SDS011;5961;42.640;23.380;2023-10-09T11:23:59;2.07;;;1.87;;
11807;SDS011;5961;42.640;23.380;2023-10-09T11:26:41;2.47;;;1.77;;
11807;SDS011;5961;42.640;23.380;2023-10-09T11:29:18;3.27;;;1.80;;
11807;SDS011;5961;42.640;23.380;2023-10-09T11:32:00;1.90;;;1.80;;
11807;SDS011;5961;42.640;23.380;2023-10-09T11:34:30;3.63;;;1.73;;
11807;SDS011;5961;42.640;23.380;2023-10-09T11:37:01;3.57;;;2.30;;
11807;SDS011;5961;42.640;23.380;2023-10-09T11:39:31;4.30;;;2.07;;
11807;SDS011;5961;42.640;23.380;2023-10-09T11:42:06;2.53;;;2.33;;
11807;SDS011;5961;42.640;23.380;2023-10-09T11:44:37;4.30;;;2.47;;
11807;SDS011;5961;42.640;23.380;2023-10-09T11:47:23;2.60;;;2.33;;
11807;SDS011;5961;42.640;23.380;2023-10-09T11:50:01;3.47;;;2.93;;
11807;SDS011;5961;42.640;23.380;2023-10-09T11:55:43;5.83;;;3.00;;
11807;SDS011;5961;42.640;23.380;2023-10-09T11:58:13;3.03;;;2.63;;
11807;SDS011;5961;42.640;23.380;2023-10-09T12:00:47;4.57;;;3.40;;
11807;SDS011;5961;42.640;23.380;2023-10-09T12:03:16;6.17;;;3.10;;
11807;SDS011;5961;42.640;23.380;2023-10-09T12:05:47;4.17;;;2.90;;
11807;SDS011;5961;42.640;23.380;2023-10-09T12:08:15;2.63;;;2.40;;
11807;SDS011;5961;42.640;23.380;2023-10-09T12:10:42;3.57;;;2.50;;
11807;SDS011;5961;42.640;23.380;2023-10-09T12:13:09;3.97;;;2.83;;
11807;SDS011;5961;42.640;23.380;2023-10-09T12:15:37;7.93;;;3.40;;
11807;SDS011;5961;42.640;23.380;2023-10-09T12:18:04;5.32;;;3.10;;
11807;SDS011;5961;42.640;23.380;2023-10-09T12:20:40;4.20;;;3.20;;
11807;SDS011;5961;42.640;23.380;2023-10-09T12:23:07;4.20;;;2.90;;
11807;SDS011;5961;42.640;23.380;2023-10-09T12:25:41;2.45;;;2.25;;
11807;SDS011;5961;42.640;23.380;2023-10-09T12:28:10;3.00;;;2.60;;
11807;SDS011;5961;42.640;23.380;2023-10-09T12:30:38;4.57;;;3.10;;
11807;SDS011;5961;42.640;23.380;2023-10-09T12:33:06;2.83;;;2.53;;
11807;SDS011;5961;42.640;23.380;2023-10-09T12:35:36;2.78;;;2.38;;
11807;SDS011;5961;42.640;23.380;2023-10-09T12:38:03;9.25;;;2.40;;
11807;SDS011;5961;42.640;23.380;2023-10-09T12:40:33;2.70;;;2.47;;
11807;SDS011;5961;42.640;23.380;2023-10-09T12:43:02;3.33;;;2.30;;
11807;SDS011;5961;42.640;23.380;2023-10-09T12:45:33;3.55;;;2.10;;
11807;SDS011;5961;42.640;23.380;2023-10-09T12:48:00;2.95;;;2.20;;
11807;SDS011;5961;42.640;23.380;2023-10-09T12:50:33;3.47;;;1.95;;
11807;SDS011;5961;42.640;23.380;2023-10-09T12:53:06;2.40;;;1.90;;
11807;SDS011;5961;42.640;23.380;2023-10-09T12:55:37;3.85;;;2.08;;
11807;SDS011;5961;42.640;23.380;2023-10-09T12:58:07;4.22;;;2.42;;
11807;SDS011;5961;42.640;23.380;2023-10-09T13:00:35;4.30;;;2.63;;
11807;SDS011;5961;42.640;23.380;2023-10-09T13:03:05;4.28;;;2.58;;
11807;SDS011;5961;42.640;23.380;2023-10-09T13:05:42;3.30;;;2.33;;
11807;SDS011;5961;42.640;23.380;2023-10-09T13:08:20;2.25;;;2.05;;
11807;SDS011;5961;42.640;23.380;2023-10-09T13:10:48;2.15;;;1.90;;
11807;SDS011;5961;42.640;23.380;2023-10-09T13:13:25;2.10;;;1.90;;
11807;SDS011;5961;42.640;23.380;2023-10-09T13:16:04;2.60;;;1.80;;
11807;SDS011;5961;42.640;23.380;2023-10-09T13:18:32;2.03;;;1.83;;
11807;SDS011;5961;42.640;23.380;2023-10-09T13:20:59;2.22;;;1.90;;
11807;SDS011;5961;42.640;23.380;2023-10-09T13:23:29;2.28;;;1.80;;
11807;SDS011;5961;42.640;23.380;2023-10-09T13:26:04;2.35;;;2.15;;
11807;SDS011;5961;42.640;23.380;2023-10-09T13:28:44;3.97;;;2.60;;
11807;SDS011;5961;42.640;23.380;2023-10-09T13:31:12;2.53;;;1.70;;
11807;SDS011;5961;42.640;23.380;2023-10-09T13:33:40;2.65;;;2.00;;
11807;SDS011;5961;42.640;23.380;2023-10-09T13:36:08;5.38;;;1.70;;
11807;SDS011;5961;42.640;23.380;2023-10-09T13:38:42;2.58;;;2.38;;
11807;SDS011;5961;42.640;23.380;2023-10-09T13:41:09;1.75;;;1.65;;
11807;SDS011;5961;42.640;23.380;2023-10-09T13:43:38;1.90;;;1.80;;
11807;SDS011;5961;42.640;23.380;2023-10-09T13:46:07;1.95;;;1.75;;
11807;SDS011;5961;42.640;23.380;2023-10-09T13:48:35;2.72;;;2.20;;
11807;SDS011;5961;42.640;23.380;2023-10-09T13:51:06;2.58;;;2.03;;
11807;SDS011;5961;42.640;23.380;2023-10-09T13:53:39;6.35;;;4.88;;
11807;SDS011;5961;42.640;23.380;2023-10-09T13:56:10;4.03;;;3.08;;
11807;SDS011;5961;42.640;23.380;2023-10-09T13:58:40;5.57;;;3.00;;
11807;SDS011;5961;42.640;23.380;2023-10-09T14:01:09;11.98;;;8.77;;
11807;SDS011;5961;42.640;23.380;2023-10-09T14:03:36;6.00;;;3.42;;
11807;SDS011;5961;42.640;23.380;2023-10-09T14:06:04;4.25;;;2.63;;
11807;SDS011;5961;42.640;23.380;2023-10-09T14:08:37;4.53;;;3.20;;
11807;SDS011;5961;42.640;23.380;2023-10-09T14:11:07;5.35;;;4.43;;
11807;SDS011;5961;42.640;23.380;2023-10-09T14:13:38;3.22;;;2.65;;
11807;SDS011;5961;42.640;23.380;2023-10-09T14:16:05;4.47;;;3.15;;
11807;SDS011;5961;42.640;23.380;2023-10-09T14:18:34;4.28;;;3.00;;
11807;SDS011;5961;42.640;23.380;2023-10-09T14:21:01;3.40;;;2.20;;
11807;SDS011;5961;42.640;23.380;2023-10-09T14:23:29;5.70;;;2.45;;
11807;SDS011;5961;42.640;23.380;2023-10-09T14:25:59;3.60;;;2.20;;
11807;SDS011;5961;42.640;23.380;2023-10-09T14:28:27;2.53;;;2.30;;
11807;SDS011;5961;42.640;23.380;2023-10-09T14:30:54;3.45;;;2.85;;
11807;SDS011;5961;42.640;23.380;2023-10-09T14:33:24;6.60;;;2.83;;
11807;SDS011;5961;42.640;23.380;2023-10-09T14:35:54;4.80;;;4.10;;
11807;SDS011;5961;42.640;23.380;2023-10-09T14:38:21;4.53;;;2.90;;
11807;SDS011;5961;42.640;23.380;2023-10-09T14:40:52;4.55;;;2.95;;
11807;SDS011;5961;42.640;23.380;2023-10-09T14:43:24;3.75;;;2.60;;
11807;SDS011;5961;42.640;23.380;2023-10-09T14:45:53;3.30;;;2.50;;
11807;SDS011;5961;42.640;23.380;2023-10-09T14:48:21;6.40;;;2.72;;
11807;SDS011;5961;42.640;23.380;2023-10-09T14:50:51;5.10;;;2.80;;
11807;SDS011;5961;42.640;23.380;2023-10-09T14:53:29;4.53;;;2.60;;
11807;SDS011;5961;42.640;23.380;2023-10-09T14:55:56;2.60;;;2.30;;
11807;SDS011;5961;42.640;23.380;2023-10-09T14:58:24;6.05;;;2.40;;
11807;SDS011;5961;42.640;23.380;2023-10-09T15:00:54;3.22;;;2.60;;
11807;SDS011;5961;42.640;23.380;2023-10-09T15:03:21;4.18;;;2.30;;
11807;SDS011;5961;42.640;23.380;2023-10-09T15:05:48;4.90;;;2.75;;
11807;SDS011;5961;42.640;23.380;2023-10-09T15:08:16;4.65;;;2.95;;
11807;SDS011;5961;42.640;23.380;2023-10-09T15:10:46;6.00;;;3.47;;
11807;SDS011;5961;42.640;23.380;2023-10-09T15:13:13;4.65;;;2.67;;
11807;SDS011;5961;42.640;23.380;2023-10-09T15:15:41;5.35;;;3.20;;
11807;SDS011;5961;42.640;23.380;2023-10-09T15:18:08;7.15;;;3.55;;
11807;SDS011;5961;42.640;23.380;2023-10-09T15:20:38;6.13;;;3.15;;
11807;SDS011;5961;42.640;23.380;2023-10-09T15:23:06;6.28;;;3.03;;
11807;SDS011;5961;42.640;23.380;2023-10-09T15:25:35;5.00;;;3.25;;
11807;SDS011;5961;42.640;23.380;2023-10-09T15:28:04;6.72;;;4.10;;
11807;SDS011;5961;42.640;23.380;2023-10-09T15:30:32;9.05;;;5.13;;
11807;SDS011;5961;42.640;23.380;2023-10-09T15:32:59;6.75;;;3.80;;
11807;SDS011;5961;42.640;23.380;2023-10-09T15:35:27;6.78;;;4.30;;
11807;SDS011;5961;42.640;23.380;2023-10-09T15:37:54;7.85;;;4.75;;